sensor_id;sensor_type;location;lat;lon;timestamp;pressure;altitude;pressure_sealevel;temperature;humidity
804;BME280;25687;49.976;8.240;2022-07-11T00:02:01;100776.16;;;16.83;95.63
804;BME280;25687;49.976;8.240;2022-07-11T00:04:28;100765.13;;;16.92;94.59
804;BME280;25687;49.976;8.240;2022-07-11T00:06:55;100773.88;;;16.91;94.72
804;BME280;25687;49.976;8.240;2022-07-11T00:09:20;100776.88;;;16.98;94.46
804;BME280;25687;49.976;8.240;2022-07-11T00:11:45;100772.06;;;17.05;94.32
804;BME280;25687;49.976;8.240;2022-07-11T00:14:11;100776.94;;;17.09;93.49
804;BME280;25687;49.976;8.240;2022-07-11T00:16:36;100774.22;;;17.11;92.97
804;BME280;25687;49.976;8.240;2022-07-11T00:19:01;100769.97;;;17.10;93.26
804;BME280;25687;49.976;8.240;2022-07-11T00:21:26;100766.09;;;17.16;92.47
804;BME280;25687;49.976;8.240;2022-07-11T00:23:52;100764.94;;;17.20;92.37
804;BME280;25687;49.976;8.240;2022-07-11T00:26:17;100760.19;;;17.14;93.17
804;BME280;25687;49.976;8.240;2022-07-11T00:28:42;100756.31;;;17.19;93.29
804;BME280;25687;49.976;8.240;2022-07-11T00:31:08;100752.31;;;17.26;92.36
804;BME280;25687;49.976;8.240;2022-07-11T00:33:33;100751.16;;;17.31;91.68
804;BME280;25687;49.976;8.240;2022-07-11T00:35:59;100755.06;;;17.36;91.34
804;BME280;25687;49.976;8.240;2022-07-11T00:38:24;100749.88;;;17.36;90.76
804;BME280;25687;49.976;8.240;2022-07-11T00:40:49;100750.59;;;17.38;91.11
804;BME280;25687;49.976;8.240;2022-07-11T00:43:15;100746.94;;;17.41;91.05
804;BME280;25687;49.976;8.240;2022-07-11T00:45:47;100745.75;;;17.45;90.88
804;BME280;25687;49.976;8.240;2022-07-11T00:48:12;100751.81;;;17.46;91.41
804;BME280;25687;49.976;8.240;2022-07-11T00:50:37;100745.88;;;17.43;91.57
804;BME280;25687;49.976;8.240;2022-07-11T00:53:03;100737.97;;;17.45;91.44
804;BME280;25687;49.976;8.240;2022-07-11T00:55:29;100742.13;;;17.48;91.59
804;BME280;25687;49.976;8.240;2022-07-11T00:57:54;100739.63;;;17.46;90.92
804;BME280;25687;49.976;8.240;2022-07-11T01:00:20;100740.47;;;17.47;91.29
804;BME280;25687;49.976;8.240;2022-07-11T01:02:45;100739.19;;;17.52;91.55
804;BME280;25687;49.976;8.240;2022-07-11T01:05:10;100730.28;;;17.43;91.01
804;BME280;25687;49.976;8.240;2022-07-11T01:07:38;100726.09;;;17.54;90.44
804;BME280;25687;49.976;8.240;2022-07-11T01:10:03;100730.22;;;17.56;90.89
804;BME280;25687;49.976;8.240;2022-07-11T01:12:29;100725.50;;;17.62;90.24
804;BME280;25687;49.976;8.240;2022-07-11T01:14:55;100729.38;;;17.56;90.42
804;BME280;25687;49.976;8.240;2022-07-11T01:17:23;100726.66;;;17.57;91.09
804;BME280;25687;49.976;8.240;2022-07-11T01:19:48;100730.06;;;17.47;91.60
804;BME280;25687;49.976;8.240;2022-07-11T01:22:14;100728.16;;;17.49;91.83
804;BME280;25687;49.976;8.240;2022-07-11T01:24:41;100723.34;;;17.55;91.34
804;BME280;25687;49.976;8.240;2022-07-11T01:27:08;100720.16;;;17.52;91.29
804;BME280;25687;49.976;8.240;2022-07-11T01:29:33;100716.63;;;17.53;90.35
804;BME280;25687;49.976;8.240;2022-07-11T01:31:59;100715.69;;;17.54;90.51
804;BME280;25687;49.976;8.240;2022-07-11T01:34:24;100720.50;;;17.47;91.22
804;BME280;25687;49.976;8.240;2022-07-11T01:36:49;100716.94;;;17.48;91.73
804;BME280;25687;49.976;8.240;2022-07-11T01:39:15;100713.91;;;17.54;91.14
804;BME280;25687;49.976;8.240;2022-07-11T01:41:40;100706.91;;;17.55;90.88
804;BME280;25687;49.976;8.240;2022-07-11T01:44:05;100706.81;;;17.56;90.69
804;BME280;25687;49.976;8.240;2022-07-11T01:46:31;100713.66;;;17.57;90.21
804;BME280;25687;49.976;8.240;2022-07-11T01:48:56;100710.72;;;17.62;90.94
804;BME280;25687;49.976;8.240;2022-07-11T01:51:24;100704.56;;;17.63;90.58
804;BME280;25687;49.976;8.240;2022-07-11T01:53:50;100702.78;;;17.64;90.88
804;BME280;25687;49.976;8.240;2022-07-11T01:56:15;100699.50;;;17.62;90.68
804;BME280;25687;49.976;8.240;2022-07-11T01:58:41;100701.38;;;17.59;90.49
804;BME280;25687;49.976;8.240;2022-07-11T02:01:06;100701.38;;;17.59;89.99
804;BME280;25687;49.976;8.240;2022-07-11T02:03:32;100700.75;;;17.56;90.28
804;BME280;25687;49.976;8.240;2022-07-11T02:05:57;100707.88;;;17.54;90.65
804;BME280;25687;49.976;8.240;2022-07-11T02:08:22;100696.75;;;17.52;91.22
804;BME280;25687;49.976;8.240;2022-07-11T02:10:50;100696.41;;;17.56;90.38
804;BME280;25687;49.976;8.240;2022-07-11T02:13:17;100694.28;;;17.62;90.40
804;BME280;25687;49.976;8.240;2022-07-11T02:15:43;100698.00;;;17.46;90.87
804;BME280;25687;49.976;8.240;2022-07-11T02:18:10;100695.81;;;17.53;90.76
804;BME280;25687;49.976;8.240;2022-07-11T02:20:37;100694.13;;;17.40;91.49
804;BME280;25687;49.976;8.240;2022-07-11T02:23:02;100700.72;;;17.33;92.25
804;BME280;25687;49.976;8.240;2022-07-11T02:25:29;100698.25;;;17.43;92.32
804;BME280;25687;49.976;8.240;2022-07-11T02:27:54;100686.81;;;17.46;91.62
804;BME280;25687;49.976;8.240;2022-07-11T02:30:20;100694.13;;;17.40;92.26
804;BME280;25687;49.976;8.240;2022-07-11T02:32:45;100695.41;;;17.46;91.63
804;BME280;25687;49.976;8.240;2022-07-11T02:35:11;100698.63;;;17.50;91.51
804;BME280;25687;49.976;8.240;2022-07-11T02:37:37;100690.13;;;17.48;91.94
804;BME280;25687;49.976;8.240;2022-07-11T02:40:02;100689.28;;;17.47;91.42
804;BME280;25687;49.976;8.240;2022-07-11T02:42:28;100687.06;;;17.54;92.31
804;BME280;25687;49.976;8.240;2022-07-11T02:44:53;100688.25;;;17.61;91.37
804;BME280;25687;49.976;8.240;2022-07-11T02:47:18;100688.59;;;17.56;91.00
804;BME280;25687;49.976;8.240;2022-07-11T02:49:43;100688.25;;;17.61;90.68
804;BME280;25687;49.976;8.240;2022-07-11T02:52:09;100690.84;;;17.61;91.16
804;BME280;25687;49.976;8.240;2022-07-11T02:54:36;100691.69;;;17.62;91.54
804;BME280;25687;49.976;8.240;2022-07-11T02:57:01;100692.97;;;17.67;91.13
804;BME280;25687;49.976;8.240;2022-07-11T02:59:27;100700.78;;;17.67;90.32
804;BME280;25687;49.976;8.240;2022-07-11T03:01:52;100693.69;;;17.58;91.37
804;BME280;25687;49.976;8.240;2022-07-11T03:04:17;100697.59;;;17.64;91.56
804;BME280;25687;49.976;8.240;2022-07-11T03:06:43;100696.56;;;17.66;91.81
804;BME280;25687;49.976;8.240;2022-07-11T03:09:09;100694.41;;;17.60;91.40
804;BME280;25687;49.976;8.240;2022-07-11T03:11:35;100695.56;;;17.56;91.74
804;BME280;25687;49.976;8.240;2022-07-11T03:14:01;100689.22;;;17.60;91.94
804;BME280;25687;49.976;8.240;2022-07-11T03:16:27;100696.03;;;17.61;92.48
804;BME280;25687;49.976;8.240;2022-07-11T03:18:53;100699.25;;;17.65;91.96
804;BME280;25687;49.976;8.240;2022-07-11T03:21:18;100694.41;;;17.60;91.85
804;BME280;25687;49.976;8.240;2022-07-11T03:23:43;100689.31;;;17.58;91.60
804;BME280;25687;49.976;8.240;2022-07-11T03:26:09;100696.13;;;17.48;93.05
804;BME280;25687;49.976;8.240;2022-07-11T03:28:34;100692.34;;;17.52;93.37
804;BME280;25687;49.976;8.240;2022-07-11T03:30:59;100688.00;;;17.53;93.08
804;BME280;25687;49.976;8.240;2022-07-11T03:33:24;100695.69;;;17.54;93.61
804;BME280;25687;49.976;8.240;2022-07-11T03:35:50;100698.03;;;17.57;92.76
804;BME280;25687;49.976;8.240;2022-07-11T03:38:18;100702.31;;;17.58;92.16
804;BME280;25687;49.976;8.240;2022-07-11T03:40:44;100690.84;;;17.61;91.85
804;BME280;25687;49.976;8.240;2022-07-11T03:43:09;100691.31;;;17.55;91.46
804;BME280;25687;49.976;8.240;2022-07-11T03:45:35;100685.50;;;17.51;91.24
804;BME280;25687;49.976;8.240;2022-07-11T03:48:00;100697.56;;;17.52;91.00
804;BME280;25687;49.976;8.240;2022-07-11T03:50:25;100693.56;;;17.59;90.82
804;BME280;25687;49.976;8.240;2022-07-11T03:52:51;100687.19;;;17.64;91.11
804;BME280;25687;49.976;8.240;2022-07-11T03:55:17;100691.44;;;17.65;90.45
804;BME280;25687;49.976;8.240;2022-07-11T03:57:42;100694.78;;;17.67;91.60
804;BME280;25687;49.976;8.240;2022-07-11T04:00:08;100683.28;;;17.58;91.26
804;BME280;25687;49.976;8.240;2022-07-11T04:02:35;100689.31;;;17.70;91.05
804;BME280;25687;49.976;8.240;2022-07-11T04:05:01;100684.63;;;17.75;90.73
804;BME280;25687;49.976;8.240;2022-07-11T04:07:26;100681.91;;;17.77;91.13
804;BME280;25687;49.976;8.240;2022-07-11T04:09:55;100683.31;;;17.81;90.77
804;BME280;25687;49.976;8.240;2022-07-11T04:12:20;100685.31;;;17.77;90.63
804;BME280;25687;49.976;8.240;2022-07-11T04:14:45;100682.50;;;17.80;91.05
804;BME280;25687;49.976;8.240;2022-07-11T04:17:11;100679.06;;;17.91;90.00
804;BME280;25687;49.976;8.240;2022-07-11T04:19:36;100684.53;;;17.99;89.81
804;BME280;25687;49.976;8.240;2022-07-11T04:22:03;100679.00;;;18.04;89.41
804;BME280;25687;49.976;8.240;2022-07-11T04:24:29;100681.59;;;18.15;87.76
804;BME280;25687;49.976;8.240;2022-07-11T04:26:54;100686.56;;;18.18;88.35
804;BME280;25687;49.976;8.240;2022-07-11T04:29:19;100675.09;;;18.21;87.85
804;BME280;25687;49.976;8.240;2022-07-11T04:31:45;100679.69;;;18.29;87.91
804;BME280;25687;49.976;8.240;2022-07-11T04:34:10;100681.94;;;18.33;86.89
804;BME280;25687;49.976;8.240;2022-07-11T04:36:35;100672.81;;;18.39;87.46
804;BME280;25687;49.976;8.240;2022-07-11T04:39:00;100674.31;;;18.53;85.58
804;BME280;25687;49.976;8.240;2022-07-11T04:41:26;100677.88;;;18.63;84.66
804;BME280;25687;49.976;8.240;2022-07-11T04:43:51;100681.06;;;18.55;84.15
804;BME280;25687;49.976;8.240;2022-07-11T04:46:16;100678.59;;;18.54;84.80
804;BME280;25687;49.976;8.240;2022-07-11T04:48:41;100687.22;;;18.66;84.31
804;BME280;25687;49.976;8.240;2022-07-11T04:51:07;100678.75;;;18.85;82.65
804;BME280;25687;49.976;8.240;2022-07-11T04:53:33;100677.22;;;18.94;80.95
804;BME280;25687;49.976;8.240;2022-07-11T04:55:59;100682.06;;;18.98;81.25
804;BME280;25687;49.976;8.240;2022-07-11T04:58:24;100692.66;;;19.18;80.67
804;BME280;25687;49.976;8.240;2022-07-11T05:00:50;100694.50;;;19.27;79.56
804;BME280;25687;49.976;8.240;2022-07-11T05:03:16;100689.75;;;19.00;78.82
804;BME280;25687;49.976;8.240;2022-07-11T05:05:42;100696.34;;;19.15;77.76
804;BME280;25687;49.976;8.240;2022-07-11T05:08:07;100697.63;;;19.42;77.12
804;BME280;25687;49.976;8.240;2022-07-11T05:10:32;100694.06;;;19.64;75.24
804;BME280;25687;49.976;8.240;2022-07-11T05:13:01;100697.69;;;19.73;73.84
804;BME280;25687;49.976;8.240;2022-07-11T05:15:26;100694.31;;;19.61;73.35
804;BME280;25687;49.976;8.240;2022-07-11T05:17:51;100699.16;;;19.66;74.16
804;BME280;25687;49.976;8.240;2022-07-11T05:20:17;100703.81;;;19.62;73.29
804;BME280;25687;49.976;8.240;2022-07-11T05:22:42;100701.88;;;19.64;73.03
804;BME280;25687;49.976;8.240;2022-07-11T05:25:08;100713.34;;;19.73;72.78
804;BME280;25687;49.976;8.240;2022-07-11T05:27:33;100712.25;;;19.55;73.50
804;BME280;25687;49.976;8.240;2022-07-11T05:29:59;100721.31;;;19.50;75.10
804;BME280;25687;49.976;8.240;2022-07-11T05:32:24;100717.53;;;19.43;75.32
804;BME280;25687;49.976;8.240;2022-07-11T05:34:49;100722.31;;;19.38;76.19
804;BME280;25687;49.976;8.240;2022-07-11T05:37:14;100713.09;;;19.55;75.39
804;BME280;25687;49.976;8.240;2022-07-11T05:39:40;100730.41;;;19.56;75.25
804;BME280;25687;49.976;8.240;2022-07-11T05:42:06;100727.97;;;19.64;74.21
804;BME280;25687;49.976;8.240;2022-07-11T05:44:31;100731.59;;;19.52;75.44
804;BME280;25687;49.976;8.240;2022-07-11T05:47:00;100731.44;;;19.65;74.43
804;BME280;25687;49.976;8.240;2022-07-11T05:49:27;100728.63;;;19.78;73.67
804;BME280;25687;49.976;8.240;2022-07-11T05:51:53;100722.97;;;19.73;73.66
804;BME280;25687;49.976;8.240;2022-07-11T05:54:18;100728.00;;;19.86;73.20
804;BME280;25687;49.976;8.240;2022-07-11T05:56:43;100729.78;;;19.85;73.35
804;BME280;25687;49.976;8.240;2022-07-11T05:59:09;100734.06;;;19.86;72.17
804;BME280;25687;49.976;8.240;2022-07-11T06:01:35;100730.94;;;19.71;74.10
804;BME280;25687;49.976;8.240;2022-07-11T06:04:00;100727.53;;;20.02;73.21
804;BME280;25687;49.976;8.240;2022-07-11T06:06:26;100724.78;;;20.03;72.21
804;BME280;25687;49.976;8.240;2022-07-11T06:08:52;100722.84;;;19.95;73.66
804;BME280;25687;49.976;8.240;2022-07-11T06:11:19;100724.41;;;20.08;73.81
804;BME280;25687;49.976;8.240;2022-07-11T06:13:44;100716.06;;;20.14;72.56
804;BME280;25687;49.976;8.240;2022-07-11T06:16:11;100713.31;;;20.56;69.91
804;BME280;25687;49.976;8.240;2022-07-11T06:18:37;100710.72;;;20.66;68.92
804;BME280;25687;49.976;8.240;2022-07-11T06:21:04;100713.72;;;20.61;69.13
804;BME280;25687;49.976;8.240;2022-07-11T06:23:30;100712.63;;;20.54;68.81
804;BME280;25687;49.976;8.240;2022-07-11T06:25:57;100712.75;;;20.53;69.02
804;BME280;25687;49.976;8.240;2022-07-11T06:28:23;100720.72;;;20.51;68.19
804;BME280;25687;49.976;8.240;2022-07-11T06:30:48;100726.22;;;20.48;68.07
804;BME280;25687;49.976;8.240;2022-07-11T06:33:18;100722.69;;;20.28;69.64
804;BME280;25687;49.976;8.240;2022-07-11T06:35:44;100720.88;;;20.59;68.36
804;BME280;25687;49.976;8.240;2022-07-11T06:38:12;100718.50;;;20.46;68.53
804;BME280;25687;49.976;8.240;2022-07-11T06:40:38;100716.97;;;20.94;67.12
804;BME280;25687;49.976;8.240;2022-07-11T06:43:04;100716.72;;;21.07;66.87
804;BME280;25687;49.976;8.240;2022-07-11T06:45:30;100722.50;;;20.91;66.57
804;BME280;25687;49.976;8.240;2022-07-11T06:47:55;100726.34;;;21.46;65.29
804;BME280;25687;49.976;8.240;2022-07-11T06:50:20;100723.19;;;21.62;64.03
804;BME280;25687;49.976;8.240;2022-07-11T06:52:46;100712.28;;;21.67;62.13
804;BME280;25687;49.976;8.240;2022-07-11T06:55:12;100717.81;;;21.24;63.13
804;BME280;25687;49.976;8.240;2022-07-11T06:57:38;100723.34;;;21.21;64.25
804;BME280;25687;49.976;8.240;2022-07-11T07:00:04;100717.66;;;21.26;63.85
804;BME280;25687;49.976;8.240;2022-07-11T07:02:30;100726.47;;;21.64;62.02
804;BME280;25687;49.976;8.240;2022-07-11T07:04:56;100724.81;;;21.63;61.79
804;BME280;25687;49.976;8.240;2022-07-11T07:07:24;100725.34;;;21.76;61.36
804;BME280;25687;49.976;8.240;2022-07-11T07:09:49;100730.88;;;21.73;61.52
804;BME280;25687;49.976;8.240;2022-07-11T07:12:15;100737.34;;;21.69;61.70
804;BME280;25687;49.976;8.240;2022-07-11T07:14:40;100736.94;;;21.64;62.33
804;BME280;25687;49.976;8.240;2022-07-11T07:17:06;100722.09;;;21.25;64.14
804;BME280;25687;49.976;8.240;2022-07-11T07:19:32;100735.00;;;21.17;63.87
804;BME280;25687;49.976;8.240;2022-07-11T07:21:57;100734.03;;;20.79;65.40
804;BME280;25687;49.976;8.240;2022-07-11T07:24:23;100732.16;;;20.60;66.65
804;BME280;25687;49.976;8.240;2022-07-11T07:26:48;100733.28;;;20.67;66.39
804;BME280;25687;49.976;8.240;2022-07-11T07:29:13;100736.56;;;20.59;66.85
804;BME280;25687;49.976;8.240;2022-07-11T07:31:39;100734.09;;;20.68;66.00
804;BME280;25687;49.976;8.240;2022-07-11T07:34:05;100735.13;;;20.86;67.27
804;BME280;25687;49.976;8.240;2022-07-11T07:36:30;100734.88;;;20.99;66.00
804;BME280;25687;49.976;8.240;2022-07-11T07:38:55;100737.91;;;21.14;64.22
804;BME280;25687;49.976;8.240;2022-07-11T07:41:21;100736.25;;;21.13;63.99
804;BME280;25687;49.976;8.240;2022-07-11T07:43:46;100738.19;;;21.11;63.93
804;BME280;25687;49.976;8.240;2022-07-11T07:46:14;100737.22;;;21.12;63.30
804;BME280;25687;49.976;8.240;2022-07-11T07:48:39;100739.72;;;21.14;63.09
804;BME280;25687;49.976;8.240;2022-07-11T07:51:04;100731.72;;;21.15;63.25
804;BME280;25687;49.976;8.240;2022-07-11T07:53:30;100738.63;;;21.06;64.81
804;BME280;25687;49.976;8.240;2022-07-11T07:55:55;100736.81;;;21.36;64.31
804;BME280;25687;49.976;8.240;2022-07-11T07:58:20;100738.19;;;21.70;61.81
804;BME280;25687;49.976;8.240;2022-07-11T08:00:46;100734.97;;;21.86;61.95
804;BME280;25687;49.976;8.240;2022-07-11T08:03:30;100732.47;;;21.84;60.68
804;BME280;25687;49.976;8.240;2022-07-11T08:05:56;100738.13;;;21.99;61.55
804;BME280;25687;49.976;8.240;2022-07-11T08:08:21;100742.00;;;21.75;60.90
804;BME280;25687;49.976;8.240;2022-07-11T08:10:47;100742.31;;;21.63;61.97
804;BME280;25687;49.976;8.240;2022-07-11T08:13:12;100742.47;;;21.61;63.28
804;BME280;25687;49.976;8.240;2022-07-11T08:15:38;100742.72;;;21.48;62.47
804;BME280;25687;49.976;8.240;2022-07-11T08:18:03;100752.22;;;21.39;63.00
804;BME280;25687;49.976;8.240;2022-07-11T08:20:28;100758.56;;;20.98;64.19
804;BME280;25687;49.976;8.240;2022-07-11T08:23:02;100752.97;;;20.71;66.01
804;BME280;25687;49.976;8.240;2022-07-11T08:25:29;100757.00;;;20.75;66.42
804;BME280;25687;49.976;8.240;2022-07-11T08:27:55;100751.31;;;20.70;66.86
804;BME280;25687;49.976;8.240;2022-07-11T08:30:20;100758.81;;;20.85;65.77
804;BME280;25687;49.976;8.240;2022-07-11T08:32:45;100761.69;;;20.82;66.18
804;BME280;25687;49.976;8.240;2022-07-11T08:35:11;100763.22;;;20.53;67.51
804;BME280;25687;49.976;8.240;2022-07-11T08:37:36;100754.09;;;20.78;66.76
804;BME280;25687;49.976;8.240;2022-07-11T08:40:02;100756.16;;;20.75;64.59
804;BME280;25687;49.976;8.240;2022-07-11T08:42:29;100760.28;;;20.77;65.16
804;BME280;25687;49.976;8.240;2022-07-11T08:44:57;100764.97;;;20.84;64.73
804;BME280;25687;49.976;8.240;2022-07-11T08:47:24;100761.84;;;20.90;64.48
804;BME280;25687;49.976;8.240;2022-07-11T08:49:51;100755.97;;;21.07;63.86
804;BME280;25687;49.976;8.240;2022-07-11T08:52:16;100754.16;;;21.08;63.46
804;BME280;25687;49.976;8.240;2022-07-11T08:54:44;100753.03;;;21.01;63.39
804;BME280;25687;49.976;8.240;2022-07-11T08:57:10;100756.91;;;21.26;61.98
804;BME280;25687;49.976;8.240;2022-07-11T08:59:36;100750.47;;;21.30;60.15
804;BME280;25687;49.976;8.240;2022-07-11T09:02:07;100758.16;;;21.41;60.35
804;BME280;25687;49.976;8.240;2022-07-11T09:04:33;100767.25;;;21.37;59.29
804;BME280;25687;49.976;8.240;2022-07-11T09:07:00;100759.41;;;21.18;59.78
804;BME280;25687;49.976;8.240;2022-07-11T09:09:27;100763.41;;;21.61;57.15
804;BME280;25687;49.976;8.240;2022-07-11T09:11:55;100762.03;;;21.57;58.68
804;BME280;25687;49.976;8.240;2022-07-11T09:14:21;100753.75;;;21.42;58.83
804;BME280;25687;49.976;8.240;2022-07-11T09:16:58;100761.75;;;21.80;57.72
804;BME280;25687;49.976;8.240;2022-07-11T09:19:26;100754.75;;;22.18;57.89
804;BME280;25687;49.976;8.240;2022-07-11T09:22:13;100756.34;;;21.91;58.80
804;BME280;25687;49.976;8.240;2022-07-11T09:25:01;100753.16;;;21.87;59.31
804;BME280;25687;49.976;8.240;2022-07-11T09:30:17;100751.84;;;22.11;57.70
804;BME280;25687;49.976;8.240;2022-07-11T09:32:58;100754.25;;;22.42;57.34
804;BME280;25687;49.976;8.240;2022-07-11T09:35:35;100743.63;;;23.08;53.29
804;BME280;25687;49.976;8.240;2022-07-11T09:38:08;100746.53;;;22.86;53.68
804;BME280;25687;49.976;8.240;2022-07-11T09:40:35;100741.28;;;23.59;51.17
804;BME280;25687;49.976;8.240;2022-07-11T09:43:01;100745.53;;;23.78;48.89
804;BME280;25687;49.976;8.240;2022-07-11T09:45:29;100740.72;;;23.47;48.62
804;BME280;25687;49.976;8.240;2022-07-11T09:47:57;100742.06;;;23.77;48.29
804;BME280;25687;49.976;8.240;2022-07-11T09:50:25;100753.13;;;23.18;50.21
804;BME280;25687;49.976;8.240;2022-07-11T09:53:06;100743.56;;;23.35;49.01
804;BME280;25687;49.976;8.240;2022-07-11T09:55:39;100747.81;;;23.00;49.79
804;BME280;25687;49.976;8.240;2022-07-11T09:58:10;100745.09;;;22.46;52.41
804;BME280;25687;49.976;8.240;2022-07-11T10:00:38;100737.09;;;22.76;54.20
804;BME280;25687;49.976;8.240;2022-07-11T10:03:05;100734.78;;;23.45;50.27
804;BME280;25687;49.976;8.240;2022-07-11T10:05:32;100731.03;;;23.92;47.82
804;BME280;25687;49.976;8.240;2022-07-11T10:07:58;100733.66;;;23.47;49.32
804;BME280;25687;49.976;8.240;2022-07-11T10:10:26;100725.50;;;23.32;49.13
804;BME280;25687;49.976;8.240;2022-07-11T10:12:52;100728.78;;;23.79;47.80
804;BME280;25687;49.976;8.240;2022-07-11T10:15:23;100729.16;;;24.10;46.98
804;BME280;25687;49.976;8.240;2022-07-11T10:24:03;100732.72;;;24.44;46.86
804;BME280;25687;49.976;8.240;2022-07-11T10:26:43;100732.38;;;24.90;45.62
804;BME280;25687;49.976;8.240;2022-07-11T10:29:25;100738.13;;;25.76;42.89
804;BME280;25687;49.976;8.240;2022-07-11T10:32:11;100741.75;;;26.71;41.75
804;BME280;25687;49.976;8.240;2022-07-11T10:34:36;100742.25;;;28.86;36.36
804;BME280;25687;49.976;8.240;2022-07-11T10:37:06;100750.22;;;29.64;35.08
804;BME280;25687;49.976;8.240;2022-07-11T10:39:38;100743.25;;;28.85;35.24
804;BME280;25687;49.976;8.240;2022-07-11T10:42:19;100741.72;;;28.24;37.03
804;BME280;25687;49.976;8.240;2022-07-11T10:44:49;100747.78;;;28.69;35.52
804;BME280;25687;49.976;8.240;2022-07-11T10:47:34;100742.00;;;27.99;35.83
804;BME280;25687;49.976;8.240;2022-07-11T10:52:56;100738.38;;;27.09;37.72
804;BME280;25687;49.976;8.240;2022-07-11T10:55:34;100743.09;;;26.27;39.34
804;BME280;25687;49.976;8.240;2022-07-11T10:58:20;100730.56;;;26.29;39.98
804;BME280;25687;49.976;8.240;2022-07-11T11:01:07;100738.34;;;25.58;40.76
804;BME280;25687;49.976;8.240;2022-07-11T11:03:34;100731.59;;;25.47;41.23
804;BME280;25687;49.976;8.240;2022-07-11T11:05:59;100735.84;;;25.15;41.96
804;BME280;25687;49.976;8.240;2022-07-11T11:14:21;100727.44;;;25.69;43.71
804;BME280;25687;49.976;8.240;2022-07-11T11:16:48;100727.06;;;25.89;43.30
804;BME280;25687;49.976;8.240;2022-07-11T11:22:18;100714.13;;;25.05;44.48
804;BME280;25687;49.976;8.240;2022-07-11T11:24:47;100719.81;;;24.67;45.24
804;BME280;25687;49.976;8.240;2022-07-11T11:27:21;100714.13;;;25.29;43.56
804;BME280;25687;49.976;8.240;2022-07-11T11:29:49;100724.19;;;25.09;44.97
804;BME280;25687;49.976;8.240;2022-07-11T11:32:15;100724.84;;;25.44;43.71
804;BME280;25687;49.976;8.240;2022-07-11T11:34:41;100721.53;;;25.34;43.74
804;BME280;25687;49.976;8.240;2022-07-11T11:37:07;100722.00;;;24.80;45.83
804;BME280;25687;49.976;8.240;2022-07-11T11:39:36;100720.19;;;24.80;43.99
804;BME280;25687;49.976;8.240;2022-07-11T11:42:14;100723.22;;;24.59;46.15
804;BME280;25687;49.976;8.240;2022-07-11T11:44:55;100723.97;;;24.70;45.93
804;BME280;25687;49.976;8.240;2022-07-11T11:47:21;100730.34;;;24.24;45.65
804;BME280;25687;49.976;8.240;2022-07-11T11:49:47;100726.59;;;24.27;47.71
804;BME280;25687;49.976;8.240;2022-07-11T11:52:14;100725.94;;;24.33;47.51
804;BME280;25687;49.976;8.240;2022-07-11T11:54:40;100732.22;;;24.48;46.50
804;BME280;25687;49.976;8.240;2022-07-11T11:57:07;100725.56;;;24.62;46.60
804;BME280;25687;49.976;8.240;2022-07-11T11:59:35;100727.50;;;24.60;46.62
804;BME280;25687;49.976;8.240;2022-07-11T12:02:00;100721.66;;;24.75;46.07
804;BME280;25687;49.976;8.240;2022-07-11T12:04:30;100717.56;;;24.72;45.94
804;BME280;25687;49.976;8.240;2022-07-11T12:06:56;100723.84;;;24.96;44.75
804;BME280;25687;49.976;8.240;2022-07-11T12:09:22;100713.47;;;25.19;45.12
804;BME280;25687;49.976;8.240;2022-07-11T12:12:07;100714.81;;;25.48;45.14
804;BME280;25687;49.976;8.240;2022-07-11T12:14:51;100720.22;;;25.30;44.93
804;BME280;25687;49.976;8.240;2022-07-11T12:17:23;100716.75;;;25.29;44.91
804;BME280;25687;49.976;8.240;2022-07-11T12:19:48;100719.88;;;24.84;45.53
804;BME280;25687;49.976;8.240;2022-07-11T12:22:14;100721.84;;;25.23;44.84
804;BME280;25687;49.976;8.240;2022-07-11T12:24:39;100714.16;;;25.46;45.23
804;BME280;25687;49.976;8.240;2022-07-11T12:27:05;100718.44;;;25.55;44.84
804;BME280;25687;49.976;8.240;2022-07-11T12:29:39;100721.38;;;25.44;45.49
804;BME280;25687;49.976;8.240;2022-07-11T12:32:12;100717.88;;;24.77;46.33
804;BME280;25687;49.976;8.240;2022-07-11T12:39:31;100710.13;;;24.25;46.76
804;BME280;25687;49.976;8.240;2022-07-11T12:41:58;100709.44;;;24.14;49.01
804;BME280;25687;49.976;8.240;2022-07-11T12:44:29;100702.59;;;24.81;46.82
804;BME280;25687;49.976;8.240;2022-07-11T12:47:14;100708.69;;;25.06;44.86
804;BME280;25687;49.976;8.240;2022-07-11T12:49:41;100704.91;;;25.34;43.73
804;BME280;25687;49.976;8.240;2022-07-11T12:52:13;100709.00;;;25.36;45.13
804;BME280;25687;49.976;8.240;2022-07-11T12:54:40;100709.81;;;25.78;43.69
804;BME280;25687;49.976;8.240;2022-07-11T12:57:06;100710.91;;;26.00;42.56
804;BME280;25687;49.976;8.240;2022-07-11T12:59:34;100704.47;;;26.03;41.53
804;BME280;25687;49.976;8.240;2022-07-11T13:02:07;100700.34;;;26.00;41.11
804;BME280;25687;49.976;8.240;2022-07-11T13:04:49;100705.94;;;25.97;41.49
804;BME280;25687;49.976;8.240;2022-07-11T13:07:33;100708.66;;;25.81;41.87
804;BME280;25687;49.976;8.240;2022-07-11T13:10:23;100698.00;;;25.33;42.34
804;BME280;25687;49.976;8.240;2022-07-11T13:12:50;100696.19;;;25.41;42.77
804;BME280;25687;49.976;8.240;2022-07-11T13:15:17;100700.31;;;25.60;42.30
804;BME280;25687;49.976;8.240;2022-07-11T13:17:48;100691.91;;;25.24;41.89
804;BME280;25687;49.976;8.240;2022-07-11T13:20:19;100692.16;;;25.87;42.18
804;BME280;25687;49.976;8.240;2022-07-11T13:22:46;100700.69;;;26.68;40.03
804;BME280;25687;49.976;8.240;2022-07-11T13:25:16;100691.16;;;25.88;40.47
804;BME280;25687;49.976;8.240;2022-07-11T13:27:44;100692.72;;;25.57;41.17
804;BME280;25687;49.976;8.240;2022-07-11T13:30:12;100701.19;;;24.52;42.52
804;BME280;25687;49.976;8.240;2022-07-11T13:32:41;100693.44;;;23.99;44.67
804;BME280;25687;49.976;8.240;2022-07-11T13:35:07;100682.50;;;24.63;43.93
804;BME280;25687;49.976;8.240;2022-07-11T13:37:33;100691.94;;;25.07;42.79